Date,TemperatureHighF,TemperatureAvgF,TemperatureLowF,DewpointHighF,DewpointAvgF,DewpointLowF,HumidityHigh,HumidityAvg,HumidityLow,PressureMaxIn,PressureMinIn,WindSpeedMaxMPH,WindSpeedAvgMPH,GustSpeedMaxMPH,PrecipitationSumIn
2012-7-12,86.4,81.2,75.1,77.4,74.2,72.7,94,80,66,30.10,30.01,9,3,0,0.05
2012-7-13,85.6,78.8,74.2,77.3,74.4,72.7,97,87,67,30.14,30.05,7,2,11,0.03
2012-7-14,87.9,81.0,73.3,75.7,73.4,71.6,96,79,61,30.17,30.09,9,3,16,0.00
2012-7-15,87.7,80.3,72.1,75.1,72.5,70.1,95,78,60,30.16,30.05,9,3,13,0.00
2012-7-16,89.2,80.6,73.4,76.0,73.1,70.6,94,79,56,30.07,29.90,9,3,14,0.02
2012-7-17,91.2,81.3,75.4,77.5,74.2,71.4,91,80,55,29.96,29.87,9,4,10,0.00
2012-7-18,89.8,81.0,74.2,76.7,73.5,71.1,90,79,58,30.00,29.91,11,5,15,0.00
2012-7-19,91.8,82.4,76.7,75.7,73.9,70.6,92,77,55,30.04,29.94,13,6,19,0.00
2012-7-20,91.3,81.7,76.0,77.2,73.6,70.9,89,77,53,29.98,29.88,14,8,17,0.05
2012-7-21,89.3,80.9,75.1,75.2,72.5,70.3,87,76,61,30.06,29.94,13,5,17,0.00
2012-7-22,93.7,84.0,77.2,78.2,75.3,70.6,91,76,48,30.15,30.04,10,5,14,0.00
2012-7-23,92.9,83.1,76.4,77.8,75.3,72.1,93,79,53,30.17,30.01,8,5,14,0.00
2012-7-24,96.9,85.4,76.7,77.5,74.1,70.6,89,71,47,30.03,29.80,10,6,20,0.00
2012-7-25,89.3,80.9,74.9,77.3,73.2,70.3,87,78,62,29.94,29.84,7,3,10,0.01
2012-7-26,97.0,87.1,78.2,81.9,77.8,75.1,93,75,51,29.89,29.79,12,6,16,0.00
2012-7-27,97.6,87.6,79.7,80.5,76.9,74.0,90,72,47,29.90,29.81,10,5,14,0.00
2012-7-28,92.2,79.6,72.5,78.9,73.9,70.0,95,83,64,29.97,29.86,14,4,17,3.04
2012-7-29,90.0,77.7,71.3,78.5,73.5,68.9,94,87,65,29.99,29.85,12,2,13,1.29
2012-7-30,81.8,76.5,73.0,76.3,72.9,70.9,95,89,73,29.98,29.88,9,3,13,0.57
2012-7-31,88.1,79.3,72.9,77.0,73.8,70.7,96,84,61,29.93,29.84,8,2,12,0.02
2012-8-1,86.8,77.9,73.4,75.8,73.0,70.3,95,85,62,29.90,29.80,8,2,12,0.34
2012-8-2,90.0,80.3,70.5,77.7,73.0,-99.9,96,81,57,29.95,29.83,12,3,16,0.10
2012-8-3,88.2,78.1,71.0,76.0,72.4,68.2,95,83,59,30.04,29.90,15,3,17,0.12
2012-8-4,87.6,80.7,72.9,76.8,73.9,71.3,95,81,61,30.17,30.02,9,3,14,0.00
2012-8-5,85.8,79.8,76.1,77.5,74.9,71.6,95,85,73,30.18,30.08,11,2,14,0.01
2012-8-6,87.0,78.3,73.9,78.2,74.3,72.2,96,88,71,30.11,29.99,8,2,11,0.17
2012-8-7,83.7,77.9,72.7,77.6,74.6,70.8,96,90,76,30.03,29.93,6,2,8,0.85
2012-8-8,84.1,78.0,74.4,75.1,73.6,69.0,96,87,74,29.99,29.91,7,2,10,0.01
2012-8-9,87.0,79.2,70.6,76.1,72.8,68.5,94,82,62,29.96,29.84,7,3,10,0.00
2012-8-10,84.3,78.3,73.6,77.4,73.8,71.3,94,86,73,29.90,29.82,13,6,22,0.25
2012-8-11,87.2,77.5,71.9,77.1,72.7,69.1,95,86,65,29.93,29.85,14,5,21,0.46
2012-8-12,72.2,71.4,71.0,70.1,69.8,69.3,96,95,92,29.93,29.89,2,0,2,0.03
2012-8-14,90.3,85.8,79.8,76.1,71.5,65.6,84,64,49,29.94,29.84,8,6,10,0.00
2012-8-15,90.3,82.5,76.7,75.8,74.3,71.8,93,77,57,29.92,29.84,8,4,14,0.00
2012-8-16,89.3,80.8,72.7,74.1,71.0,65.5,93,74,46,29.97,29.89,6,3,10,0.00
2012-8-17,89.8,79.4,72.3,75.6,72.1,69.4,93,79,52,29.95,29.80,10,3,14,0.00
2012-8-18,87.7,78.2,71.0,74.9,71.9,68.6,93,81,63,29.86,29.77,8,2,12,0.00
2012-8-19,87.5,78.4,72.4,76.9,73.7,70.0,95,86,65,29.85,29.79,12,4,13,0.11
2012-8-20,84.7,77.5,73.5,73.3,72.2,70.3,95,85,64,29.92,29.79,8,4,11,0.04
2012-8-21,81.3,75.7,71.5,73.0,71.9,69.7,96,88,73,30.00,29.89,6,2,7,0.00
2012-8-22,81.2,74.2,71.0,74.3,71.6,69.2,95,92,76,30.02,29.96,10,2,14,0.00
2012-8-23,81.9,72.7,69.2,73.9,70.4,67.7,97,93,74,30.06,30.00,9,3,12,0.01
2012-8-24,73.1,70.3,67.5,70.1,68.3,65.2,97,93,84,30.07,30.00,8,3,13,0.00
2012-8-25,81.1,72.2,67.2,69.6,66.4,64.4,94,83,61,30.08,30.00,5,2,8,0.00
2012-8-26,86.2,74.6,64.1,73.7,68.1,62.6,95,82,60,30.13,30.02,7,2,10,0.01
2012-8-27,86.5,78.3,72.7,77.6,74.6,71.5,97,89,72,30.05,29.97,12,3,15,0.31
2012-8-28,80.4,76.0,73.9,76.9,74.2,72.7,96,94,87,30.00,29.93,7,2,7,0.78
2012-8-29,83.8,76.8,72.7,77.2,74.1,71.2,97,91,76,29.98,29.88,7,2,11,0.01
2012-8-30,81.4,76.1,72.3,75.4,73.0,71.1,97,90,79,30.11,29.94,4,1,6,0.31
2012-8-31,88.3,78.7,71.5,77.1,73.9,70.5,98,86,64,30.19,30.08,7,2,9,0.01
2012-9-1,92.0,82.4,74.6,77.6,75.1,72.8,95,80,58,30.11,29.98,7,3,8,0.00
2012-9-2,93.0,83.6,76.2,78.5,76.1,74.3,94,79,55,30.00,29.89,8,4,9,0.00
2012-9-3,89.0,81.3,76.0,77.4,75.0,73.1,95,82,62,30.01,29.93,11,4,16,0.00
2012-9-4,85.8,79.7,74.0,74.4,72.3,69.4,93,79,61,29.99,29.90,9,4,15,0.00
2012-9-5,88.2,80.5,75.7,77.0,73.9,72.3,92,81,62,29.95,29.85,11,4,15,0.09
2012-9-6,89.3,81.4,75.1,77.0,74.3,72.1,95,80,58,29.95,29.84,8,4,11,0.00
2012-9-7,86.0,79.2,73.8,76.4,74.2,72.2,95,85,69,29.92,29.82,9,2,10,0.05
2012-9-8,89.8,80.0,71.9,77.0,74.1,70.4,96,83,58,29.83,29.70,12,5,16,0.64
2012-9-9,79.3,73.9,67.8,72.1,68.3,62.8,97,83,67,29.93,29.72,7,2,10,0.06
2012-9-10,80.5,70.3,60.5,63.5,59.6,55.0,93,72,42,30.10,29.92,8,2,14,0.00
2012-9-11,79.3,69.8,60.3,61.0,56.8,52.4,84,66,43,30.24,30.10,9,3,14,0.00
2012-9-12,79.0,69.1,58.4,64.7,58.4,54.7,88,71,45,30.28,30.20,7,3,11,0.00
2012-9-13,82.7,71.7,62.4,67.2,63.6,59.4,92,77,52,30.25,30.15,9,4,11,0.00
2012-9-14,82.2,73.3,64.9,71.0,67.3,63.4,96,83,58,30.18,30.07,6,2,10,0.00
2012-9-15,85.3,74.5,66.7,71.8,67.9,62.9,97,82,49,30.12,30.03,7,2,9,0.00
2012-9-16,80.9,73.7,66.6,71.5,68.5,64.6,94,84,68,30.09,30.00,7,2,13,0.01
2012-9-17,84.2,76.2,67.9,72.7,70.0,66.4,96,82,62,30.04,29.92,9,3,14,0.00
2012-9-18,83.9,77.7,72.7,76.0,73.1,69.9,94,86,75,29.92,29.71,14,6,20,0.92
2012-9-19,75.6,70.5,64.6,71.0,66.6,60.0,96,88,75,30.05,29.80,8,3,9,0.01
2012-9-20,76.5,68.7,63.3,65.6,62.1,59.0,90,80,66,30.09,30.00,6,3,8,0.00
2012-9-21,80.8,71.0,61.4,65.0,62.1,58.8,94,75,49,30.05,29.97,6,2,9,0.00
2012-9-22,84.0,72.4,64.1,70.2,65.9,61.9,94,81,59,30.01,29.91,9,3,18,0.00
2012-9-23,79.4,71.8,62.0,67.7,59.4,51.3,95,68,41,30.05,29.92,9,3,13,0.00
2012-9-24,75.5,65.7,56.9,57.2,53.6,49.8,90,67,42,30.15,30.04,8,3,11,0.00
2012-9-25,78.2,66.9,56.3,61.9,55.4,49.5,88,69,40,30.20,30.13,7,2,9,0.00
2012-9-26,82.5,69.5,57.7,66.4,61.9,56.1,95,79,49,30.19,30.11,6,2,9,0.00
2012-9-27,83.8,71.3,59.5,67.5,63.3,57.8,95,78,50,30.17,30.05,7,2,9,0.01
2012-9-28,84.5,73.8,64.0,70.8,66.7,62.2,95,80,54,30.07,29.95,6,2,8,0.00
2012-9-29,79.9,73.9,69.5,71.3,69.1,66.6,95,85,70,29.97,29.82,6,2,9,0.02
2012-9-30,70.2,68.2,66.6,66.8,65.2,63.7,95,90,84,29.87,29.80,6,2,9,0.01
2012-10-1,83.0,73.8,66.6,76.2,70.6,65.1,97,90,78,29.84,29.75,10,4,15,0.02
2012-10-2,84.7,79.0,75.3,77.8,75.5,71.4,95,89,79,29.95,29.74,11,5,15,0.40
2012-10-3,84.9,78.6,75.0,76.7,72.1,63.5,95,82,50,30.16,29.96,7,4,9,0.03
2012-10-4,81.1,75.4,70.6,72.1,70.2,68.0,93,84,73,30.19,30.11,7,2,9,0.00
2012-10-5,82.3,72.5,66.7,69.5,65.5,60.5,96,81,49,30.16,29.99,5,1,9,0.01
2012-10-6,83.2,72.7,63.1,69.6,66.2,61.8,96,81,55,29.99,29.84,8,2,12,0.00
2012-10-7,84.5,73.8,61.4,73.2,67.8,56.5,96,82,59,30.04,29.88,9,3,11,0.00
2012-10-8,61.6,56.9,51.8,57.2,53.5,50.1,94,89,84,30.10,29.99,7,4,12,0.15
2012-10-9,59.2,54.7,51.9,54.7,52.3,50.5,95,91,84,30.09,30.01,5,3,8,0.00
2012-10-10,72.0,60.2,50.9,59.8,54.9,49.8,96,84,62,30.09,29.95,8,2,11,0.00
2012-10-11,70.2,60.1,53.0,57.0,51.5,47.1,95,75,47,30.24,30.07,8,2,14,0.01
2012-10-12,75.3,62.8,49.1,57.8,53.8,47.4,94,75,51,30.24,30.10,4,1,7,0.00
2012-10-13,72.6,61.6,52.5,55.6,51.8,48.5,87,71,50,30.36,30.23,7,3,12,0.00
2012-10-14,79.5,66.0,52.8,65.8,57.3,49.7,94,76,43,30.27,30.02,8,1,11,0.00
2012-10-15,79.8,69.9,60.4,69.0,64.6,58.8,95,84,68,30.02,29.70,9,2,14,0.13
2012-10-16,70.0,60.6,51.7,61.5,50.1,46.1,92,70,44,29.92,29.79,7,1,13,0.00
2012-10-17,68.9,58.8,50.8,57.9,53.0,49.1,94,82,52,29.97,29.88,4,0,6,0.01
2012-10-18,78.5,66.5,54.2,69.3,62.4,52.2,94,87,66,29.90,29.76,8,2,14,0.03
2012-10-19,76.9,69.8,59.7,68.0,57.9,45.9,96,70,34,29.79,29.70,7,2,12,0.18
2012-10-20,73.9,62.7,51.6,53.0,49.9,44.6,91,66,38,29.89,29.75,8,2,11,0.01
2012-10-21,69.8,59.1,50.6,51.7,47.5,43.7,91,68,43,30.11,29.88,7,1,11,0.00
2012-10-22,72.6,58.2,45.5,53.3,47.8,43.3,93,72,40,30.20,30.10,4,0,8,0.00
2012-10-23,77.1,61.4,48.7,58.1,52.9,47.1,94,77,41,30.17,30.07,5,0,7,0.00
2012-10-24,79.5,65.1,53.9,66.9,59.2,52.7,97,83,55,30.15,30.05,4,0,7,0.00
2012-10-25,80.7,69.2,59.0,68.0,63.0,57.8,97,82,55,30.08,30.01,9,2,14,0.00
2012-10-26,73.4,68.2,62.4,64.9,62.6,57.4,93,83,72,30.01,29.76,9,5,15,0.00
2012-10-27,68.7,66.1,63.9,64.2,62.0,58.7,93,87,79,29.75,29.49,11,8,22,0.00
2012-10-28,66.9,63.9,59.2,58.6,54.5,51.3,79,72,64,29.52,29.47,10,5,13,0.00
2012-10-29,59.2,54.1,49.5,51.6,41.0,34.5,79,62,49,29.54,29.44,11,6,21,0.00
2012-10-30,58.5,51.4,47.2,39.6,36.1,33.9,66,56,45,29.65,29.42,11,7,16,0.00
2012-10-31,61.7,51.5,42.4,41.4,36.4,32.6,73,57,41,29.76,29.65,10,4,14,0.00
2012-11-1,61.4,50.1,38.8,39.3,33.9,30.1,76,56,32,29.85,29.73,9,3,13,0.00
2012-11-2,71.8,54.2,38.3,47.7,38.6,32.5,82,58,34,29.93,29.77,10,2,17,0.00
2012-11-3,66.5,53.9,41.8,46.7,40.6,33.7,88,64,35,30.08,29.92,5,1,9,0.00
2012-11-4,79.6,61.3,48.5,60.5,54.4,45.2,94,80,49,30.00,29.84,6,2,11,0.01
2012-11-5,60.1,50.8,45.2,48.7,43.3,39.4,93,77,51,30.04,29.90,7,3,13,0.03
2012-11-6,52.2,45.3,41.7,42.8,39.2,36.0,87,79,70,30.02,29.84,8,4,11,0.00
2012-11-7,56.0,45.2,38.2,42.5,37.7,33.6,91,76,55,29.90,29.78,5,2,7,0.00
2012-11-8,61.3,46.7,34.3,39.3,34.5,26.0,93,67,27,30.07,29.90,6,1,13,0.00
2012-11-9,63.9,48.6,34.2,43.0,35.9,30.5,91,65,32,30.24,30.07,5,1,8,0.00
2012-11-10,69.9,52.7,38.1,49.2,42.7,36.3,94,73,34,30.35,30.23,6,1,10,0.00
2012-11-11,73.0,59.0,44.7,60.3,53.2,43.1,95,82,61,30.43,30.34,9,2,13,0.00
2012-11-12,76.7,65.9,56.9,64.6,60.5,55.3,96,84,64,30.35,30.16,9,2,13,0.00
2012-11-13,71.3,60.4,45.6,65.6,56.4,43.4,95,87,74,30.29,30.11,10,3,16,0.00
2012-11-14,53.1,48.1,44.5,44.3,42.9,40.3,93,82,71,30.35,30.25,8,5,14,0.00
2012-11-15,49.7,45.8,41.8,48.0,43.8,39.8,95,93,88,30.29,30.12,10,4,12,0.00
2012-11-16,58.7,50.2,45.7,47.8,45.2,40.5,95,84,66,30.29,30.17,8,4,11,0.01
2012-11-17,55.3,49.4,41.2,47.7,43.0,36.7,87,79,72,30.33,30.26,10,6,12,0.00
2012-11-18,55.1,52.6,49.7,51.6,49.0,45.4,94,88,79,30.28,30.14,13,8,22,0.07
2012-11-19,59.0,55.1,52.3,52.6,50.4,48.1,89,84,79,30.15,30.05,11,7,17,0.01
2012-11-20,60.8,53.7,49.0,52.5,49.3,46.5,91,85,73,30.09,29.98,8,3,11,0.01
2012-11-21,60.3,50.8,43.8,47.8,44.0,38.3,94,79,59,30.09,30.00,9,3,15,0.00
2012-11-22,62.3,49.1,39.6,40.3,35.0,28.8,84,62,29,30.15,30.06,8,3,13,0.00
2012-11-23,66.3,50.8,34.4,47.1,39.0,31.4,89,67,37,30.12,29.85,6,2,10,0.00
2012-11-24,57.1,49.6,39.7,45.7,35.4,26.6,78,60,37,30.07,29.85,8,3,10,0.00
2012-11-25,55.8,41.5,28.8,38.3,28.8,23.3,92,63,34,30.18,30.04,6,2,9,0.13
2012-11-26,66.4,49.5,35.2,40.8,35.1,24.7,94,64,21,30.19,30.09,5,2,11,0.01
2012-11-27,60.7,50.9,39.2,50.1,43.5,35.6,94,77,50,30.16,30.05,6,1,7,0.00
2012-11-28,54.5,47.1,36.0,48.5,40.0,33.9,95,78,51,30.35,30.12,8,3,12,0.00
2012-11-29,56.5,40.1,31.4,38.7,33.4,29.6,94,80,39,30.44,30.33,6,1,8,0.26
2012-11-30,63.9,49.1,32.3,48.0,38.4,30.2,94,71,33,30.37,30.26,5,1,7,0.06
2012-12-1,67.7,53.2,40.1,52.2,46.2,38.5,95,79,56,30.36,30.27,6,1,8,0.00
2012-12-2,67.1,56.6,46.3,58.4,52.6,44.9,96,87,69,30.37,30.25,8,2,10,0.00
2012-12-3,74.2,59.2,47.4,61.3,54.9,46.3,97,87,53,30.29,30.19,5,1,7,0.00
2012-12-4,73.6,61.5,52.2,61.9,57.4,51.1,96,87,61,30.31,30.19,7,2,10,0.00
2012-12-5,74.8,63.2,52.6,59.1,55.8,51.0,96,79,48,30.19,30.05,8,2,11,0.00
2012-12-6,60.7,53.9,49.0,57.3,46.3,40.9,91,76,66,30.20,30.10,9,5,13,0.00
2012-12-7,67.6,56.3,48.3,61.9,52.1,42.2,96,86,75,30.10,29.94,6,3,9,0.02
2012-12-8,66.3,57.8,53.8,58.0,55.1,52.6,97,91,73,30.05,29.94,4,2,8,0.00
2012-12-9,73.4,61.8,50.9,64.8,58.6,49.8,96,90,75,30.10,29.95,8,2,10,0.00
2012-12-10,73.8,66.4,61.4,65.5,61.8,57.9,97,86,61,29.95,29.74,13,4,16,0.00
2012-12-11,70.5,65.7,60.9,66.2,61.4,58.6,93,86,74,30.03,29.74,9,4,12,0.02
2012-12-12,60.9,49.2,42.1,58.6,47.3,40.2,95,93,87,30.20,29.99,11,6,14,0.38
2012-12-13,49.6,43.9,41.3,44.8,41.2,39.4,94,90,82,30.28,30.10,10,5,14,0.12
2012-12-14,58.1,45.5,37.7,42.6,38.9,35.5,94,79,47,30.32,30.18,6,2,9,0.00
2012-12-15,58.6,50.1,39.5,54.4,46.0,36.7,96,86,76,30.21,30.04,6,1,6,0.00
2012-12-16,64.5,57.4,53.7,60.9,55.9,52.9,97,95,88,30.06,29.86,5,1,7,0.01
2012-12-17,64.6,62.5,58.8,63.2,60.7,56.9,96,94,90,29.86,29.65,12,4,13,0.02
2012-12-18,66.0,58.2,46.9,57.5,47.2,37.2,96,69,46,29.92,29.69,13,5,20,0.03
2012-12-19,67.1,52.4,41.8,46.9,40.1,35.4,92,66,36,30.08,29.92,7,2,9,0.03
2012-12-20,70.1,57.7,40.8,64.6,52.4,39.4,96,83,63,30.08,29.54,19,6,28,0.07
2012-12-21,64.8,47.0,41.4,60.1,31.6,26.4,87,56,42,29.86,29.56,19,11,28,0.10
2012-12-22,51.6,43.1,36.2,26.7,23.6,20.4,58,47,30,30.10,29.86,10,6,14,0.01
2012-12-23,56.8,45.0,30.0,40.2,31.0,26.3,87,60,35,30.17,30.03,7,2,9,0.04
2012-12-24,61.9,52.1,44.3,45.0,37.3,30.6,83,58,31,30.06,29.89,11,3,14,0.01
2012-12-25,57.9,52.8,47.1,52.3,49.2,44.1,95,88,79,30.07,29.91,9,2,11,0.11
2012-12-26,68.6,57.8,43.5,64.7,51.2,33.2,97,80,49,29.94,29.42,19,9,28,1.08
2012-12-27,52.8,44.0,36.8,38.7,34.8,31.4,92,71,52,30.02,29.70,12,5,23,0.03
2012-12-28,49.1,41.7,32.8,40.6,35.6,30.2,93,80,62,30.13,29.92,5,1,7,0.00
2012-12-29,54.8,48.5,43.7,48.2,43.5,36.8,95,83,69,29.94,29.66,12,5,17,0.61
2012-12-30,48.0,40.1,32.2,36.9,28.9,22.5,85,66,38,30.39,29.94,8,3,10,0.28
2012-12-31,57.1,42.8,28.5,44.4,33.7,24.2,91,72,37,30.40,30.13,9,2,10,0.01
2013-1-1,61.2,55.1,49.0,54.8,49.5,44.4,93,82,75,30.13,29.90,6,2,9,0.00